createdAt,value
2019-04-07T00:00:30.314Z,8.61
2019-04-07T00:01:30.586Z,8.58
2019-04-07T00:02:30.410Z,8.63
2019-04-07T00:03:30.248Z,8.58
2019-04-07T00:04:30.644Z,8.63
2019-04-07T00:05:30.248Z,8.49
2019-04-07T00:06:30.643Z,8.47
2019-04-07T00:07:30.197Z,8.52
2019-04-07T00:08:31.211Z,8.43
2019-04-07T00:09:30.183Z,8.37
2019-04-07T00:10:30.442Z,8.46
2019-04-07T00:11:30.173Z,8.43
2019-04-07T00:12:30.153Z,8.45
2019-04-07T00:13:30.962Z,8.45
2019-04-07T00:14:30.130Z,8.36
2019-04-07T00:15:30.111Z,8.40
2019-04-07T00:16:30.117Z,8.45
2019-04-07T00:17:30.105Z,8.40
2019-04-07T00:18:30.079Z,8.37
2019-04-07T00:19:30.671Z,8.32
2019-04-07T00:20:30.075Z,8.32
2019-04-07T00:21:30.190Z,8.32
2019-04-07T00:22:30.038Z,8.34
2019-04-07T00:23:30.026Z,8.27
2019-04-07T00:24:30.019Z,8.36
2019-04-07T00:25:30.027Z,8.25
2019-04-07T00:26:30.027Z,8.20
2019-04-07T00:27:30.305Z,8.22
2019-04-07T00:28:30.094Z,8.21
2019-04-07T00:29:29.966Z,8.24
2019-04-07T00:30:30.333Z,8.13
2019-04-07T00:31:29.954Z,8.13
2019-04-07T00:32:29.972Z,8.20
2019-04-07T00:33:29.917Z,8.13
2019-04-07T00:34:29.909Z,8.20
2019-04-07T00:35:32.600Z,8.10
2019-04-07T00:36:29.900Z,8.12
2019-04-07T00:37:31.054Z,8.07
2019-04-07T00:38:30.499Z,8.02
2019-04-07T00:39:29.872Z,8.00
2019-04-07T00:40:30.565Z,7.99
2019-04-07T00:41:29.966Z,8.02
2019-04-07T00:42:30.019Z,7.99
2019-04-07T00:43:29.810Z,7.95
2019-04-07T00:44:30.015Z,7.95
2019-04-07T00:45:29.799Z,7.95
2019-04-07T00:46:29.823Z,7.95
2019-04-07T00:47:29.782Z,7.91
2019-04-07T00:48:29.770Z,7.95
2019-04-07T00:49:29.748Z,7.94
2019-04-07T00:50:29.735Z,7.95
2019-04-07T00:51:29.745Z,7.92
2019-04-07T00:52:29.718Z,7.94
2019-04-07T00:53:29.988Z,7.91
2019-04-07T00:54:29.725Z,7.91
2019-04-07T00:55:29.701Z,7.91
2019-04-07T00:56:30.057Z,7.71
2019-04-07T00:57:30.318Z,7.77
2019-04-07T00:58:30.156Z,7.73
2019-04-07T00:59:29.741Z,7.71
2019-04-07T01:00:29.692Z,7.73
2019-04-07T01:01:29.647Z,7.66
2019-04-07T01:02:29.615Z,7.74
2019-04-07T01:03:30.199Z,7.73
2019-04-07T01:04:29.598Z,7.71
2019-04-07T01:05:36.727Z,7.70
2019-04-07T01:06:30.588Z,7.63
2019-04-07T01:07:29.985Z,7.66
2019-04-07T01:08:29.543Z,7.66
2019-04-07T01:09:29.917Z,7.62
2019-04-07T01:10:29.533Z,7.58
2019-04-07T01:11:29.509Z,7.57
2019-04-07T01:12:29.517Z,7.55
2019-04-07T01:13:29.838Z,7.54
2019-04-07T01:14:29.487Z,7.60
2019-04-07T01:15:29.476Z,7.57
2019-04-07T01:16:30.047Z,7.58
2019-04-07T01:17:30.241Z,7.62
2019-04-07T01:18:29.435Z,7.51
2019-04-07T01:19:30.006Z,7.52
2019-04-07T01:20:29.621Z,7.54
2019-04-07T01:21:29.411Z,7.60
2019-04-07T01:22:29.802Z,7.48
2019-04-07T01:23:29.394Z,7.51
2019-04-07T01:24:29.871Z,7.51
2019-04-07T01:25:29.379Z,7.39
2019-04-07T01:26:29.353Z,7.42
2019-04-07T01:27:29.907Z,7.39
2019-04-07T01:28:29.508Z,7.37
2019-04-07T01:29:29.862Z,7.34
2019-04-07T01:30:29.322Z,7.37
2019-04-07T01:31:29.807Z,7.33
2019-04-07T01:32:29.297Z,7.34
2019-04-07T01:33:29.282Z,7.34
2019-04-07T01:34:29.303Z,7.32
2019-04-07T01:35:30.361Z,7.27
2019-04-07T01:36:29.296Z,7.32
2019-04-07T01:37:29.285Z,7.26
2019-04-07T01:38:29.223Z,7.11
2019-04-07T01:39:29.488Z,7.15
2019-04-07T01:40:29.203Z,7.27
2019-04-07T01:41:29.188Z,7.27
2019-04-07T01:42:29.214Z,7.23
2019-04-07T01:43:29.264Z,7.14
2019-04-07T01:44:29.730Z,7.18
2019-04-07T01:45:29.168Z,7.23
2019-04-07T01:46:29.149Z,7.19
2019-04-07T01:47:29.128Z,7.23
2019-04-07T01:48:29.295Z,7.16
2019-04-07T01:49:29.125Z,7.16
2019-04-07T01:50:29.659Z,7.19
2019-04-07T01:51:29.087Z,7.18
2019-04-07T01:52:29.096Z,7.15
2019-04-07T01:53:29.076Z,7.07
2019-04-07T01:54:29.052Z,7.04
2019-04-07T01:55:29.052Z,7.08
2019-04-07T01:56:29.611Z,7.01
2019-04-07T01:57:29.041Z,7.00
2019-04-07T01:58:29.019Z,7.01
2019-04-07T01:59:29.004Z,7.11
2019-04-07T02:00:29.164Z,7.16
2019-04-07T02:01:29.650Z,7.16
2019-04-07T02:02:29.125Z,7.12
2019-04-07T02:03:29.109Z,7.18
2019-04-07T02:04:29.245Z,7.15
2019-04-07T02:05:28.943Z,7.05
2019-04-07T02:06:28.939Z,7.05
2019-04-07T02:07:29.454Z,7.04
2019-04-07T02:08:28.918Z,7.05
2019-04-07T02:09:29.046Z,7.00
2019-04-07T02:10:29.076Z,6.90
2019-04-07T02:11:28.885Z,6.87
2019-04-07T02:12:28.876Z,6.93
2019-04-07T02:13:28.874Z,6.93
2019-04-07T02:14:29.110Z,6.91
2019-04-07T02:15:29.338Z,6.93
2019-04-07T02:16:28.839Z,6.93
2019-04-07T02:17:30.110Z,6.91
2019-04-07T02:18:28.902Z,6.91
2019-04-07T02:19:29.386Z,6.90
2019-04-07T02:20:28.800Z,6.87
2019-04-07T02:21:29.536Z,6.91
2019-04-07T02:22:28.995Z,6.96
2019-04-07T02:23:29.163Z,6.87
2019-04-07T02:24:28.752Z,6.83
2019-04-07T02:25:28.733Z,6.79
2019-04-07T02:26:28.973Z,6.78
2019-04-07T02:27:28.712Z,6.79
2019-04-07T02:28:28.719Z,6.75
2019-04-07T02:29:29.158Z,6.78
2019-04-07T02:30:29.023Z,6.89
2019-04-07T02:31:29.625Z,6.78
2019-04-07T02:32:29.253Z,6.81
2019-04-07T02:33:28.871Z,6.82
2019-04-07T02:34:29.787Z,6.75
2019-04-07T02:35:28.626Z,6.78
2019-04-07T02:36:31.352Z,6.76
2019-04-07T02:37:28.612Z,6.73
2019-04-07T02:38:29.557Z,6.73
2019-04-07T02:39:29.064Z,6.72
2019-04-07T02:40:28.605Z,6.78
2019-04-07T02:41:29.189Z,6.68
2019-04-07T02:42:28.554Z,6.65
2019-04-07T02:43:28.561Z,6.69
2019-04-07T02:44:30.019Z,6.68
2019-04-07T02:45:28.523Z,6.61
2019-04-07T02:46:28.515Z,6.60
2019-04-07T02:47:28.510Z,6.61
2019-04-07T02:48:28.557Z,6.69
2019-04-07T02:49:28.638Z,6.65
2019-04-07T02:50:28.461Z,6.54
2019-04-07T02:51:28.456Z,6.54
2019-04-07T02:52:30.274Z,6.54
2019-04-07T02:53:28.835Z,6.58
2019-04-07T02:54:29.000Z,6.53
2019-04-07T02:55:28.426Z,6.45
2019-04-07T02:56:29.333Z,6.48
2019-04-07T02:57:29.070Z,6.57
2019-04-07T02:58:29.262Z,6.51
2019-04-07T02:59:29.318Z,6.53
2019-04-07T03:00:28.358Z,6.45
2019-04-07T03:01:29.652Z,6.45
2019-04-07T03:02:29.140Z,6.43
2019-04-07T03:03:28.339Z,6.45
2019-04-07T03:04:29.159Z,6.50
2019-04-07T03:05:28.301Z,6.50
2019-04-07T03:06:39.404Z,6.42
2019-04-07T03:07:29.290Z,6.38
2019-04-07T03:08:29.023Z,6.33
2019-04-07T03:09:28.294Z,6.42
2019-04-07T03:10:29.109Z,6.35
2019-04-07T03:11:29.161Z,6.33
2019-04-07T03:12:28.228Z,6.36
2019-04-07T03:13:29.038Z,6.25
2019-04-07T03:14:28.425Z,6.27
2019-04-07T03:15:28.225Z,6.28
2019-04-07T03:16:29.215Z,6.32
2019-04-07T03:17:28.203Z,6.25
2019-04-07T03:18:29.188Z,6.25
2019-04-07T03:19:28.175Z,6.21
2019-04-07T03:20:28.522Z,6.19
2019-04-07T03:21:28.160Z,6.25
2019-04-07T03:22:29.157Z,6.20
2019-04-07T03:23:28.611Z,6.28
2019-04-07T03:24:28.691Z,6.20
2019-04-07T03:25:28.130Z,6.24
2019-04-07T03:26:29.175Z,6.14
2019-04-07T03:27:28.302Z,6.21
2019-04-07T03:28:28.834Z,6.27
2019-04-07T03:29:28.140Z,6.19
2019-04-07T03:30:31.095Z,6.16
2019-04-07T03:31:29.714Z,6.21
2019-04-07T03:32:28.702Z,6.25
2019-04-07T03:33:30.021Z,6.25
2019-04-07T03:34:30.852Z,6.21
2019-04-07T03:35:30.550Z,6.20
2019-04-07T03:36:30.083Z,6.24
2019-04-07T03:37:36.378Z,6.24
2019-04-07T03:38:28.965Z,6.16
2019-04-07T03:39:27.958Z,6.30
2019-04-07T03:40:28.065Z,6.14
2019-04-07T03:41:29.069Z,6.21
2019-04-07T03:42:27.912Z,6.16
2019-04-07T03:43:28.150Z,6.17
2019-04-07T03:44:29.036Z,6.08
2019-04-07T03:45:28.736Z,6.17
2019-04-07T03:46:28.437Z,6.11
2019-04-07T03:47:27.882Z,6.14
2019-04-07T03:48:28.346Z,6.17
2019-04-07T03:49:27.848Z,6.03
2019-04-07T03:50:27.829Z,6.05
2019-04-07T03:51:27.821Z,6.10
2019-04-07T03:52:28.744Z,6.05
2019-04-07T03:53:28.499Z,6.02
2019-04-07T03:54:28.410Z,6.08
2019-04-07T03:55:28.299Z,6.01
2019-04-07T03:56:28.455Z,6.02
2019-04-07T03:57:28.027Z,6.08
2019-04-07T03:58:27.750Z,6.02
2019-04-07T03:59:27.873Z,5.95
2019-04-07T04:00:27.736Z,6.01
2019-04-07T04:01:28.469Z,5.98
2019-04-07T04:02:27.920Z,6.01
2019-04-07T04:03:27.690Z,5.96
2019-04-07T04:04:28.543Z,5.98
2019-04-07T04:05:27.674Z,5.88
2019-04-07T04:06:28.229Z,5.96
2019-04-07T04:07:32.294Z,5.96
2019-04-07T04:08:28.811Z,5.93
2019-04-07T04:09:28.411Z,5.98
2019-04-07T04:10:27.664Z,5.87
2019-04-07T04:11:28.575Z,5.84
2019-04-07T04:12:27.726Z,5.84
2019-04-07T04:13:27.603Z,5.88
2019-04-07T04:14:27.711Z,5.87
2019-04-07T04:15:27.574Z,5.84
2019-04-07T04:16:28.476Z,5.85
2019-04-07T04:17:28.316Z,5.88
2019-04-07T04:18:28.512Z,5.81
2019-04-07T04:19:28.699Z,5.84
2019-04-07T04:20:28.274Z,5.90
2019-04-07T04:21:28.747Z,5.70
2019-04-07T04:22:28.978Z,5.78
2019-04-07T04:23:28.494Z,5.83
2019-04-07T04:24:28.406Z,5.80
2019-04-07T04:25:27.489Z,5.83
2019-04-07T04:26:27.460Z,5.80
2019-04-07T04:27:28.149Z,5.81
2019-04-07T04:28:27.450Z,5.78
2019-04-07T04:29:27.442Z,5.73
2019-04-07T04:30:27.738Z,5.78
2019-04-07T04:31:27.432Z,5.70
2019-04-07T04:32:27.386Z,5.78
2019-04-07T04:33:27.549Z,5.74
2019-04-07T04:34:27.408Z,5.84
2019-04-07T04:35:27.375Z,5.87
2019-04-07T04:36:27.352Z,5.85
2019-04-07T04:37:39.915Z,5.87
2019-04-07T04:38:28.388Z,5.83
2019-04-07T04:39:27.315Z,5.93
2019-04-07T04:40:28.053Z,5.85
2019-04-07T04:41:27.454Z,5.85
2019-04-07T04:42:27.307Z,5.96
2019-04-07T04:43:27.568Z,5.96
2019-04-07T04:44:28.325Z,5.87
2019-04-07T04:45:27.587Z,5.96
2019-04-07T04:46:27.262Z,6.05
2019-04-07T04:47:27.551Z,5.93
2019-04-07T04:48:27.848Z,6.13
2019-04-07T04:49:27.213Z,6.05
2019-04-07T04:50:27.537Z,6.05
2019-04-07T04:51:27.955Z,6.13
2019-04-07T04:52:27.721Z,6.11
2019-04-07T04:53:28.987Z,6.06
2019-04-07T04:54:27.818Z,6.25
2019-04-07T04:55:27.190Z,6.20
2019-04-07T04:56:27.131Z,6.21
2019-04-07T04:57:27.188Z,6.16
2019-04-07T04:58:28.826Z,6.14
2019-04-07T04:59:27.895Z,6.10
2019-04-07T05:00:27.130Z,6.13
2019-04-07T05:01:27.579Z,6.14
2019-04-07T05:02:27.694Z,6.20
2019-04-07T05:03:27.250Z,6.13
2019-04-07T05:04:27.064Z,6.10
2019-04-07T05:05:27.995Z,6.03
2019-04-07T05:06:27.767Z,6.02
2019-04-07T05:07:27.016Z,6.10
2019-04-07T05:08:27.114Z,6.11
2019-04-07T05:09:39.162Z,6.08
2019-04-07T05:10:28.789Z,6.03
2019-04-07T05:11:26.982Z,6.11
2019-04-07T05:12:27.436Z,6.14
2019-04-07T05:13:27.273Z,6.11
2019-04-07T05:14:27.525Z,6.11
2019-04-07T05:15:27.524Z,6.02
2019-04-07T05:16:27.581Z,6.06
2019-04-07T05:17:27.515Z,6.11
2019-04-07T05:18:26.924Z,6.24
2019-04-07T05:19:27.228Z,6.24
2019-04-07T05:20:26.898Z,6.11
2019-04-07T05:21:27.365Z,6.32
2019-04-07T05:22:26.866Z,6.25
2019-04-07T05:23:26.844Z,6.28
2019-04-07T05:24:26.857Z,6.32
2019-04-07T05:25:27.399Z,6.35
2019-04-07T05:26:26.839Z,6.33
2019-04-07T05:27:27.589Z,6.46
2019-04-07T05:28:26.797Z,6.46
2019-04-07T05:29:26.805Z,6.51
2019-04-07T05:30:27.028Z,6.54
2019-04-07T05:31:26.759Z,6.45
2019-04-07T05:32:26.865Z,6.63
2019-04-07T05:33:26.746Z,6.57
2019-04-07T05:34:26.803Z,6.61
2019-04-07T05:35:27.502Z,6.61
2019-04-07T05:36:26.899Z,6.73
2019-04-07T05:37:26.852Z,6.68
2019-04-07T05:38:26.695Z,6.81
2019-04-07T05:39:27.233Z,6.73
2019-04-07T05:40:26.757Z,6.76
2019-04-07T05:41:27.200Z,6.81
2019-04-07T05:42:26.685Z,6.79
2019-04-07T05:43:27.318Z,6.94
2019-04-07T05:44:26.662Z,6.90
2019-04-07T05:45:27.045Z,6.94
2019-04-07T05:46:28.100Z,7.01
2019-04-07T05:47:26.693Z,7.05
2019-04-07T05:48:26.640Z,7.00
2019-04-07T05:49:27.098Z,7.07
2019-04-07T05:50:27.438Z,7.15
2019-04-07T05:51:29.938Z,7.18
2019-04-07T05:52:27.217Z,7.16
2019-04-07T05:53:26.670Z,7.16
2019-04-07T05:54:26.550Z,7.24
2019-04-07T05:55:27.138Z,7.27
2019-04-07T05:56:28.323Z,7.27
2019-04-07T05:57:30.784Z,7.24
2019-04-07T05:58:27.841Z,7.33
2019-04-07T05:59:26.464Z,7.39
2019-04-07T06:00:26.485Z,7.39
2019-04-07T06:01:26.757Z,7.41
2019-04-07T06:02:27.292Z,7.47
2019-04-07T06:03:26.441Z,7.44
2019-04-07T06:04:27.057Z,7.45
2019-04-07T06:05:26.418Z,7.54
2019-04-07T06:06:26.898Z,7.57
2019-04-07T06:07:29.600Z,7.58
2019-04-07T06:08:33.795Z,7.62
2019-04-07T06:09:28.060Z,7.63
2019-04-07T06:10:28.734Z,7.71
2019-04-07T06:11:28.860Z,7.69
2019-04-07T06:12:26.354Z,7.74
2019-04-07T06:13:26.334Z,7.74
2019-04-07T06:14:26.820Z,7.82
2019-04-07T06:15:26.315Z,7.88
2019-04-07T06:16:26.764Z,7.92
2019-04-07T06:17:27.454Z,7.96
2019-04-07T06:18:26.303Z,7.89
2019-04-07T06:19:26.261Z,8.02
2019-04-07T06:20:26.305Z,8.02
2019-04-07T06:21:26.274Z,8.07
2019-04-07T06:22:26.227Z,8.09
2019-04-07T06:23:29.516Z,8.12
2019-04-07T06:24:26.878Z,8.13
2019-04-07T06:25:27.232Z,8.14
2019-04-07T06:26:26.529Z,8.22
2019-04-07T06:27:28.681Z,8.29
2019-04-07T06:28:26.774Z,8.25
2019-04-07T06:29:26.491Z,8.32
2019-04-07T06:30:28.141Z,8.31
2019-04-07T06:31:27.113Z,8.34
2019-04-07T06:32:26.715Z,8.40
2019-04-07T06:33:26.421Z,8.50
2019-04-07T06:34:26.584Z,8.46
2019-04-07T06:35:26.135Z,8.46
2019-04-07T06:36:26.795Z,8.46
2019-04-07T06:37:29.273Z,8.54
2019-04-07T06:38:33.692Z,8.58
2019-04-07T06:39:27.609Z,8.58
2019-04-07T06:40:26.026Z,8.70
2019-04-07T06:41:29.477Z,8.78
2019-04-07T06:42:26.714Z,8.76
2019-04-07T06:43:26.994Z,8.86
2019-04-07T06:44:25.982Z,8.79
2019-04-07T06:45:25.971Z,8.85
2019-04-07T06:46:28.586Z,8.82
2019-04-07T06:47:26.030Z,8.88
2019-04-07T06:48:26.581Z,8.93
2019-04-07T06:49:28.383Z,8.93
2019-04-07T06:50:25.932Z,9.01
2019-04-07T06:51:29.294Z,8.98
2019-04-07T06:52:25.933Z,9.03
2019-04-07T06:53:25.957Z,9.12
2019-04-07T06:54:25.949Z,9.03
2019-04-07T06:55:28.484Z,9.17
2019-04-07T06:56:26.054Z,9.17
2019-04-07T06:57:26.590Z,9.17
2019-04-07T06:58:26.586Z,9.17
2019-04-07T06:59:26.171Z,9.22
2019-04-07T07:00:25.938Z,9.19
2019-04-07T07:01:26.636Z,9.19
2019-04-07T07:02:27.018Z,9.20
2019-04-07T07:03:25.778Z,9.19
2019-04-07T07:04:26.509Z,9.26
2019-04-07T07:05:25.759Z,9.27
2019-04-07T07:06:26.742Z,9.24
2019-04-07T07:07:26.106Z,9.24
2019-04-07T07:08:25.745Z,9.17
2019-04-07T07:09:27.672Z,9.27
2019-04-07T07:10:29.865Z,9.23
2019-04-07T07:11:30.869Z,9.15
2019-04-07T07:12:31.670Z,9.23
2019-04-07T07:13:32.270Z,9.19
2019-04-07T07:14:35.483Z,9.19
2019-04-07T07:15:26.821Z,9.19
2019-04-07T07:16:26.139Z,9.17
2019-04-07T07:17:25.749Z,9.22
2019-04-07T07:18:25.634Z,9.24
2019-04-07T07:19:27.408Z,9.27
2019-04-07T07:20:28.697Z,9.20
2019-04-07T07:21:25.645Z,9.19
2019-04-07T07:22:25.771Z,9.20
2019-04-07T07:23:26.246Z,9.20
2019-04-07T07:24:26.597Z,9.22
2019-04-07T07:25:28.579Z,9.24
2019-04-07T07:26:25.543Z,9.20
2019-04-07T07:27:25.896Z,9.23
2019-04-07T07:28:26.152Z,9.20
2019-04-07T07:29:26.885Z,9.26
2019-04-07T07:30:26.034Z,9.26
2019-04-07T07:31:26.430Z,9.24
2019-04-07T07:32:25.929Z,9.24
2019-04-07T07:33:25.456Z,9.20
2019-04-07T07:34:25.585Z,9.22
2019-04-07T07:35:25.624Z,9.24
2019-04-07T07:36:25.428Z,9.27
2019-04-07T07:37:26.830Z,9.30
2019-04-07T07:38:27.733Z,9.27
2019-04-07T07:39:26.214Z,9.31
2019-04-07T07:40:25.463Z,9.31
2019-04-07T07:41:25.453Z,9.30
2019-04-07T07:42:25.715Z,9.49
2019-04-07T07:43:27.978Z,9.53
2019-04-07T07:44:25.349Z,9.55
2019-04-07T07:45:26.129Z,9.60
2019-04-07T07:46:25.333Z,9.62
2019-04-07T07:47:25.440Z,9.77
2019-04-07T07:48:27.334Z,9.83
2019-04-07T07:49:25.820Z,9.88
2019-04-07T07:50:25.438Z,9.95
2019-04-07T07:51:25.728Z,9.99
2019-04-07T07:52:25.511Z,10.10
2019-04-07T07:53:28.151Z,10.14
2019-04-07T07:54:27.701Z,10.22
2019-04-07T07:55:25.346Z,10.18
2019-04-07T07:56:25.607Z,10.31
2019-04-07T07:57:25.213Z,10.34
2019-04-07T07:58:27.956Z,10.49
2019-04-07T07:59:25.205Z,10.54
2019-04-07T08:00:25.693Z,10.62
2019-04-07T08:01:25.668Z,10.72
2019-04-07T08:02:25.183Z,10.80
2019-04-07T08:03:25.140Z,10.93
2019-04-07T08:04:26.775Z,10.84
2019-04-07T08:05:29.838Z,11.02
2019-04-07T08:06:26.292Z,11.09
2019-04-07T08:07:25.892Z,11.05
2019-04-07T08:08:25.349Z,11.13
2019-04-07T08:09:26.049Z,11.26
2019-04-07T08:10:26.607Z,11.28
2019-04-07T08:11:25.072Z,11.24
2019-04-07T08:12:25.538Z,11.30
2019-04-07T08:13:25.777Z,11.27
2019-04-07T08:14:25.025Z,11.35
2019-04-07T08:15:29.706Z,11.35
2019-04-07T08:16:29.476Z,11.27
2019-04-07T08:17:25.989Z,11.39
2019-04-07T08:18:25.044Z,11.33
2019-04-07T08:19:29.290Z,11.39
2019-04-07T08:20:25.953Z,11.38
2019-04-07T08:21:24.944Z,11.42
2019-04-07T08:22:29.934Z,11.36
2019-04-07T08:23:26.278Z,11.45
2019-04-07T08:24:24.924Z,11.35
2019-04-07T08:25:25.790Z,11.33
2019-04-07T08:26:25.392Z,11.44
2019-04-07T08:27:29.967Z,11.46
2019-04-07T08:28:26.513Z,11.51
2019-04-07T08:29:24.886Z,11.45
2019-04-07T08:30:25.022Z,11.49
2019-04-07T08:31:25.073Z,11.46
2019-04-07T08:32:28.040Z,11.57
2019-04-07T08:33:24.893Z,11.66
2019-04-07T08:34:25.421Z,11.57
2019-04-07T08:35:24.792Z,11.62
2019-04-07T08:36:24.853Z,11.66
2019-04-07T08:37:25.197Z,11.72
2019-04-07T08:38:26.713Z,11.74
2019-04-07T08:39:27.001Z,11.74
2019-04-07T08:40:26.336Z,11.81
2019-04-07T08:41:25.545Z,11.85
2019-04-07T08:42:25.272Z,11.72
2019-04-07T08:43:24.861Z,11.84
2019-04-07T08:44:26.938Z,11.85
2019-04-07T08:45:26.707Z,11.94
2019-04-07T08:46:26.489Z,11.90
2019-04-07T08:47:24.667Z,11.93
2019-04-07T08:48:24.681Z,11.93
2019-04-07T08:49:25.516Z,11.97
2019-04-07T08:50:27.729Z,12.04
2019-04-07T08:51:24.947Z,11.98
2019-04-07T08:52:24.627Z,12.03
2019-04-07T08:53:25.059Z,12.07
2019-04-07T08:54:24.595Z,12.15
2019-04-07T08:55:24.579Z,12.23
2019-04-07T08:56:26.527Z,12.30
2019-04-07T08:57:27.219Z,12.33
2019-04-07T08:58:27.912Z,12.44
2019-04-07T08:59:25.946Z,12.49
2019-04-07T09:00:24.926Z,12.59
2019-04-07T09:01:25.197Z,12.67
2019-04-07T09:02:26.070Z,12.74
2019-04-07T09:03:24.633Z,12.81
2019-04-07T09:04:25.223Z,12.84
2019-04-07T09:05:28.866Z,12.91
2019-04-07T09:06:28.463Z,13.01
2019-04-07T09:07:24.686Z,13.13
2019-04-07T09:08:24.454Z,13.10
2019-04-07T09:09:32.816Z,13.16
2019-04-07T09:10:25.948Z,13.17
2019-04-07T09:11:24.445Z,13.39
2019-04-07T09:12:26.851Z,13.39
2019-04-07T09:13:25.101Z,13.36
2019-04-07T09:14:24.736Z,13.51
2019-04-07T09:15:24.363Z,13.59
2019-04-07T09:16:24.671Z,13.63
2019-04-07T09:17:32.165Z,13.68
2019-04-07T09:18:25.361Z,13.66
2019-04-07T09:19:25.161Z,13.73
2019-04-07T09:20:24.309Z,13.71
2019-04-07T09:21:35.264Z,13.68
2019-04-07T09:22:25.388Z,13.72
2019-04-07T09:23:26.331Z,13.75
2019-04-07T09:24:26.949Z,13.91
2019-04-07T09:25:24.280Z,13.94
2019-04-07T09:26:24.248Z,14.05
2019-04-07T09:27:24.620Z,13.96
2019-04-07T09:28:24.252Z,14.05
2019-04-07T09:29:26.132Z,14.11
2019-04-07T09:30:24.956Z,14.16
2019-04-07T09:31:24.555Z,14.16
2019-04-07T09:32:24.179Z,14.17
2019-04-07T09:33:24.278Z,14.16
2019-04-07T09:34:24.834Z,14.21
2019-04-07T09:35:26.481Z,14.34
2019-04-07T09:36:24.633Z,14.35
2019-04-07T09:37:25.287Z,14.31
2019-04-07T09:38:26.147Z,14.53
2019-04-07T09:39:24.117Z,14.61
2019-04-07T09:40:24.445Z,14.64
2019-04-07T09:41:27.493Z,14.63
2019-04-07T09:42:25.770Z,14.64
2019-04-07T09:43:24.719Z,14.75
2019-04-07T09:44:24.064Z,14.79
2019-04-07T09:45:24.078Z,14.94
2019-04-07T09:46:24.196Z,14.83
2019-04-07T09:47:24.466Z,14.90
2019-04-07T09:48:24.059Z,14.97
2019-04-07T09:49:24.770Z,15.11
2019-04-07T09:50:26.783Z,15.19
2019-04-07T09:51:24.363Z,15.15
2019-04-07T09:52:23.973Z,15.23
2019-04-07T09:53:23.956Z,15.22
2019-04-07T09:54:23.962Z,15.35
2019-04-07T09:55:25.773Z,15.38
2019-04-07T09:56:24.059Z,15.40
2019-04-07T09:57:24.690Z,15.38
2019-04-07T09:58:23.999Z,15.46
2019-04-07T09:59:23.983Z,15.52
2019-04-07T10:00:25.075Z,15.56
2019-04-07T10:01:27.775Z,15.51
2019-04-07T10:02:24.030Z,15.49
2019-04-07T10:03:23.846Z,15.55
2019-04-07T10:04:23.850Z,15.55
2019-04-07T10:05:23.825Z,15.60
2019-04-07T10:06:23.814Z,15.62
2019-04-07T10:07:24.029Z,15.62
2019-04-07T10:08:23.855Z,15.59
2019-04-07T10:09:23.794Z,15.66
2019-04-07T10:10:23.850Z,15.64
2019-04-07T10:11:23.761Z,15.71
2019-04-07T10:12:24.801Z,15.68
2019-04-07T10:13:24.069Z,15.71
2019-04-07T10:14:23.803Z,15.60
2019-04-07T10:15:24.408Z,15.64
2019-04-07T10:16:23.803Z,15.68
2019-04-07T10:17:24.296Z,15.74
2019-04-07T10:18:24.012Z,15.78
2019-04-07T10:19:24.276Z,15.77
2019-04-07T10:20:24.204Z,15.77
2019-04-07T10:21:24.218Z,15.86
2019-04-07T10:22:23.672Z,15.84
2019-04-07T10:23:24.194Z,15.86
2019-04-07T10:24:23.639Z,15.89
2019-04-07T10:25:25.236Z,15.84
2019-04-07T10:26:24.363Z,15.76
2019-04-07T10:27:23.587Z,15.81
2019-04-07T10:28:24.400Z,15.96
2019-04-07T10:29:23.565Z,15.99
2019-04-07T10:30:24.313Z,16.14
2019-04-07T10:31:23.618Z,16.23
2019-04-07T10:32:25.564Z,16.14
2019-04-07T10:33:23.785Z,16.22
2019-04-07T10:34:23.718Z,16.30
2019-04-07T10:35:23.620Z,16.25
2019-04-07T10:36:23.491Z,16.14
2019-04-07T10:37:23.479Z,16.13
2019-04-07T10:38:23.477Z,16.22
2019-04-07T10:39:24.101Z,16.23
2019-04-07T10:40:24.342Z,16.29
2019-04-07T10:41:23.437Z,16.33
2019-04-07T10:42:23.632Z,16.33
2019-04-07T10:43:24.000Z,16.32
2019-04-07T10:44:23.851Z,16.30
2019-04-07T10:45:23.411Z,16.42
2019-04-07T10:46:23.382Z,16.33
2019-04-07T10:47:23.515Z,16.41
2019-04-07T10:48:24.901Z,16.47
2019-04-07T10:49:23.713Z,16.55
2019-04-07T10:50:23.363Z,16.42
2019-04-07T10:51:24.114Z,16.44
2019-04-07T10:52:23.564Z,16.30
2019-04-07T10:53:23.307Z,16.30
2019-04-07T10:54:23.422Z,16.32
2019-04-07T10:55:24.109Z,16.27
2019-04-07T10:56:23.309Z,16.33
2019-04-07T10:57:23.264Z,16.29
2019-04-07T10:58:23.252Z,16.26
2019-04-07T10:59:23.245Z,16.33
2019-04-07T11:00:24.074Z,16.32
2019-04-07T11:01:23.238Z,16.29
2019-04-07T11:02:23.769Z,16.36
2019-04-07T11:03:23.209Z,16.42
2019-04-07T11:04:23.806Z,16.44
2019-04-07T11:05:24.369Z,16.45
2019-04-07T11:06:23.817Z,16.45
2019-04-07T11:07:23.810Z,16.69
2019-04-07T11:08:23.328Z,16.91
2019-04-07T11:09:23.560Z,16.98
2019-04-07T11:10:32.888Z,17.02
2019-04-07T11:11:24.544Z,16.96
2019-04-07T11:12:23.264Z,17.00
2019-04-07T11:13:23.207Z,17.07
2019-04-07T11:14:23.809Z,17.20
2019-04-07T11:15:23.069Z,17.25
2019-04-07T11:16:23.073Z,17.43
2019-04-07T11:17:23.053Z,17.45
2019-04-07T11:18:23.038Z,17.65
2019-04-07T11:19:23.236Z,17.73
2019-04-07T11:20:23.077Z,17.83
2019-04-07T11:21:23.719Z,18.01
2019-04-07T11:22:22.993Z,18.17
2019-04-07T11:23:23.067Z,18.39
2019-04-07T11:24:22.972Z,18.51
2019-04-07T11:25:22.961Z,18.66
2019-04-07T11:26:23.644Z,18.82
2019-04-07T11:27:22.943Z,18.93
2019-04-07T11:28:22.936Z,19.07
2019-04-07T11:29:22.934Z,19.25
2019-04-07T11:30:22.915Z,19.45
2019-04-07T11:31:23.291Z,19.60
2019-04-07T11:32:22.969Z,19.60
2019-04-07T11:33:22.875Z,19.58
2019-04-07T11:34:22.869Z,19.78
2019-04-07T11:35:23.313Z,19.80
2019-04-07T11:36:24.357Z,19.75
2019-04-07T11:37:23.369Z,19.89
2019-04-07T11:38:23.194Z,19.82
2019-04-07T11:39:23.098Z,19.85
2019-04-07T11:40:22.803Z,20.00
2019-04-07T11:41:25.578Z,20.16
2019-04-07T11:42:23.057Z,20.38
2019-04-07T11:43:22.820Z,20.50
2019-04-07T11:44:22.940Z,20.64
2019-04-07T11:45:22.767Z,20.69
2019-04-07T11:46:23.203Z,20.78
2019-04-07T11:47:23.135Z,20.87
2019-04-07T11:48:23.148Z,21.01
2019-04-07T11:49:23.026Z,21.12
2019-04-07T11:50:23.369Z,21.08
2019-04-07T11:51:22.768Z,21.21
2019-04-07T11:52:23.513Z,21.12
2019-04-07T11:53:23.196Z,21.18
2019-04-07T11:54:22.649Z,21.08
2019-04-07T11:55:23.204Z,21.05
2019-04-07T11:56:22.862Z,20.91
2019-04-07T11:57:22.623Z,20.97
2019-04-07T11:58:30.458Z,20.85
2019-04-07T11:59:23.934Z,20.94
2019-04-07T12:00:22.586Z,21.21
2019-04-07T12:01:22.912Z,21.30
2019-04-07T12:02:22.846Z,21.51
2019-04-07T12:03:26.865Z,21.70
2019-04-07T12:04:24.029Z,21.85
2019-04-07T12:05:23.400Z,22.02
2019-04-07T12:06:24.628Z,22.02
2019-04-07T12:07:23.080Z,22.01
2019-04-07T12:08:24.564Z,21.94
2019-04-07T12:09:22.488Z,21.91
2019-04-07T12:10:22.537Z,21.96
2019-04-07T12:11:23.346Z,21.73
2019-04-07T12:12:22.898Z,21.91
2019-04-07T12:13:22.511Z,22.09
2019-04-07T12:14:22.550Z,22.29
2019-04-07T12:15:25.797Z,22.39
2019-04-07T12:16:22.418Z,22.74
2019-04-07T12:17:22.414Z,22.89
2019-04-07T12:18:22.395Z,23.00
2019-04-07T12:19:23.913Z,23.59
2019-04-07T12:20:22.740Z,25.54
2019-04-07T12:21:25.113Z,27.45
2019-04-07T12:22:22.773Z,28.74
2019-04-07T12:23:25.172Z,29.97
2019-04-07T12:24:25.912Z,30.30
2019-04-07T12:25:23.370Z,30.40
2019-04-07T12:26:22.461Z,31.41
2019-04-07T12:27:22.507Z,31.67
2019-04-07T12:28:22.287Z,31.82
2019-04-07T12:29:22.321Z,32.73
2019-04-07T12:30:23.298Z,34.15
2019-04-07T12:31:22.750Z,33.29
2019-04-07T12:32:22.263Z,31.57
2019-04-07T12:33:23.196Z,29.94
2019-04-07T12:34:22.267Z,28.79
2019-04-07T12:35:22.222Z,28.06
2019-04-07T12:36:26.599Z,27.52
2019-04-07T12:37:23.824Z,27.39
2019-04-07T12:38:22.924Z,28.06
2019-04-07T12:39:22.340Z,28.77
2019-04-07T12:40:22.947Z,31.37
2019-04-07T12:41:23.338Z,34.21
2019-04-07T12:42:22.409Z,36.77
2019-04-07T12:43:22.987Z,37.75
2019-04-07T12:44:22.124Z,37.24
2019-04-07T12:45:22.366Z,34.87
2019-04-07T12:46:22.104Z,32.87
2019-04-07T12:47:22.478Z,31.49
2019-04-07T12:48:22.083Z,30.30
2019-04-07T12:49:22.073Z,29.42
2019-04-07T12:50:22.067Z,28.65
2019-04-07T12:51:22.386Z,28.06
2019-04-07T12:52:26.113Z,27.72
2019-04-07T12:53:23.724Z,27.27
2019-04-07T12:54:22.202Z,27.05
2019-04-07T12:55:22.011Z,26.68
2019-04-07T12:56:22.132Z,26.57
2019-04-07T12:57:22.047Z,26.35
2019-04-07T12:58:21.982Z,26.24
2019-04-07T12:59:22.673Z,26.08
2019-04-07T13:00:23.913Z,26.06
2019-04-07T13:01:22.838Z,26.09
2019-04-07T13:02:22.837Z,26.03
2019-04-07T13:03:22.352Z,26.19
2019-04-07T13:04:21.919Z,26.44
2019-04-07T13:05:21.907Z,26.36
2019-04-07T13:06:22.231Z,26.23
2019-04-07T13:07:22.929Z,26.00